UADD

Taraz Airport

Airport
ICAO code
UADD
IATA Code
DMB
Summary
ICAO Region
APAC
ICAO Territory
Location

Taraz, Jambyl Province,

Serving
Taraz
Elevation
2184 ft
Coordinates
42° 51' 13" N , 71° 18' 13" E
Metar
UADD 221930Z 31002MPS 9999 SCT050CB OVC100 15/11 Q1018 NOSIG RMK QFE707/0942

Description

Taraz Airport, also known as Jambyl Airport is an airport serving Taraz (formerly Jambyl and Aulie-Ata), a city in the Jambyl Province of Kazakhstan.

Runways

Designator Length Width Surface Rops
13/31 2900 45 ASP No/No

Airport map

Aerial View

SKYbrary Partners:

Safety knowledge contributed by: